createdAt,value
2018-01-21T00:02:02.900Z,7.72
2018-01-21T00:04:30.957Z,9.93
2018-01-21T00:06:59.005Z,10.73
2018-01-21T00:09:27.814Z,9.15
2018-01-21T00:11:56.632Z,7.45
2018-01-21T00:14:24.664Z,11.05
2018-01-21T00:16:52.708Z,11.00
2018-01-21T00:19:20.738Z,9.45
2018-01-21T00:21:50.301Z,10.18
2018-01-21T00:24:18.332Z,7.15
2018-01-21T00:26:46.384Z,10.48
2018-01-21T00:29:14.417Z,10.65
2018-01-21T00:31:42.469Z,8.55
2018-01-21T00:34:10.496Z,10.00
2018-01-21T00:36:39.313Z,10.90
2018-01-21T00:39:07.348Z,12.40
2018-01-21T00:41:35.408Z,11.20
2018-01-21T00:44:03.440Z,10.68
2018-01-21T00:46:31.492Z,14.02
2018-01-21T00:48:59.532Z,11.77
2018-01-21T00:51:27.588Z,11.85
2018-01-21T00:53:55.609Z,11.02
2018-01-21T00:56:23.677Z,12.65
2018-01-21T00:58:51.707Z,13.85
2018-01-21T01:01:19.772Z,12.15
2018-01-21T01:03:47.803Z,14.73
2018-01-21T01:06:15.856Z,9.10
2018-01-21T01:08:43.904Z,12.95
2018-01-21T01:11:11.940Z,8.70
2018-01-21T01:13:39.996Z,7.80
2018-01-21T01:16:08.029Z,10.63
2018-01-21T01:18:36.860Z,10.07
2018-01-21T01:21:04.888Z,8.48
2018-01-21T01:23:32.953Z,11.60
2018-01-21T01:26:00.976Z,12.23
2018-01-21T01:28:29.792Z,15.50
2018-01-21T01:30:57.832Z,12.85
2018-01-21T01:33:25.876Z,12.63
2018-01-21T01:35:53.910Z,11.50
2018-01-21T01:38:21.965Z,13.10
2018-01-21T01:40:50.008Z,13.32
2018-01-21T01:43:18.808Z,12.10
2018-01-21T01:45:47.613Z,11.60
2018-01-21T01:48:16.396Z,13.98
2018-01-21T01:50:45.152Z,13.07
2018-01-21T01:53:13.140Z,11.55
2018-01-21T01:55:41.139Z,13.27
2018-01-21T01:58:09.144Z,12.18
2018-01-21T02:00:37.896Z,9.77
2018-01-21T02:03:05.915Z,13.32
2018-01-21T02:05:33.917Z,10.57
2018-01-21T02:08:02.664Z,13.75
2018-01-21T02:10:30.672Z,11.55
2018-01-21T02:12:58.675Z,17.87
2018-01-21T02:15:27.430Z,12.90
2018-01-21T02:17:55.431Z,10.93
2018-01-21T02:20:23.435Z,10.00
2018-01-21T02:22:52.192Z,13.98
2018-01-21T02:25:20.191Z,12.55
2018-01-21T02:27:48.199Z,10.38
2018-01-21T02:30:16.951Z,12.43
2018-01-21T02:32:44.956Z,12.73
2018-01-21T02:35:12.959Z,13.55
2018-01-21T02:37:40.948Z,8.43
2018-01-21T02:40:09.724Z,12.85
2018-01-21T02:42:37.715Z,11.77
2018-01-21T02:45:05.699Z,10.27
2018-01-21T02:47:35.312Z,8.30
2018-01-21T02:50:03.317Z,10.15
2018-01-21T02:52:32.064Z,8.82
2018-01-21T02:55:00.077Z,10.10
2018-01-21T02:57:28.084Z,9.98
2018-01-21T02:59:56.843Z,12.48
2018-01-21T03:02:24.839Z,7.43
2018-01-21T03:04:52.849Z,9.63
2018-01-21T03:07:20.827Z,8.98
2018-01-21T03:09:49.592Z,8.68
2018-01-21T03:12:17.600Z,12.32
2018-01-21T03:14:45.585Z,7.78
2018-01-21T03:17:15.108Z,11.73
2018-01-21T03:19:43.103Z,7.72
2018-01-21T03:22:11.864Z,7.85
2018-01-21T03:24:39.851Z,8.65
2018-01-21T03:27:07.864Z,7.28
2018-01-21T03:29:36.616Z,8.43
2018-01-21T03:32:04.611Z,9.05
2018-01-21T03:34:32.606Z,9.88
2018-01-21T03:37:00.595Z,9.13
2018-01-21T03:39:28.610Z,10.02
2018-01-21T03:41:57.367Z,8.57
2018-01-21T03:44:25.356Z,8.07
2018-01-21T03:46:53.359Z,10.80
2018-01-21T03:49:22.128Z,7.80
2018-01-21T03:51:50.115Z,11.02
2018-01-21T03:54:18.120Z,8.23
2018-01-21T03:56:46.116Z,9.82
2018-01-21T03:59:14.875Z,11.65
2018-01-21T04:01:42.886Z,10.77
2018-01-21T04:04:10.883Z,12.52
2018-01-21T04:06:39.643Z,11.30
2018-01-21T04:09:07.652Z,10.35
2018-01-21T04:11:35.647Z,9.98
2018-01-21T04:14:04.410Z,12.60
2018-01-21T04:16:32.408Z,12.45
2018-01-21T04:19:00.399Z,6.55
2018-01-21T04:21:28.387Z,8.18
2018-01-21T04:23:57.155Z,6.32
2018-01-21T04:26:25.159Z,15.18
2018-01-21T04:28:53.149Z,8.40
2018-01-21T04:31:21.151Z,11.35
2018-01-21T04:33:49.151Z,10.70
2018-01-21T04:36:17.144Z,9.43
2018-01-21T04:38:45.151Z,11.00
2018-01-21T04:41:13.162Z,10.63
2018-01-21T04:43:41.907Z,7.57
2018-01-21T04:46:09.910Z,9.00
2018-01-21T04:48:37.906Z,6.85
2018-01-21T04:51:05.896Z,8.93
2018-01-21T04:53:33.895Z,9.10
2018-01-21T04:56:02.665Z,8.40
2018-01-21T04:58:30.657Z,10.07
2018-01-21T05:00:58.660Z,9.60
2018-01-21T05:03:27.434Z,8.27
2018-01-21T05:05:55.415Z,8.23
2018-01-21T05:08:23.407Z,8.52
2018-01-21T05:10:51.415Z,10.00
2018-01-21T05:13:20.168Z,10.55
2018-01-21T05:15:48.164Z,7.87
2018-01-21T05:18:16.169Z,8.32
2018-01-21T05:20:44.147Z,6.95
2018-01-21T05:23:12.143Z,7.22
2018-01-21T05:25:40.921Z,6.93
2018-01-21T05:28:08.900Z,6.12
2018-01-21T05:30:36.900Z,5.82
2018-01-21T05:33:04.891Z,4.10
2018-01-21T05:35:33.647Z,5.70
2018-01-21T05:38:01.664Z,6.40
2018-01-21T05:40:29.672Z,4.95
2018-01-21T05:42:57.689Z,6.97
2018-01-21T05:45:25.675Z,4.12
2018-01-21T05:47:53.671Z,5.80
2018-01-21T05:50:21.662Z,5.95
2018-01-21T05:52:49.656Z,4.12
2018-01-21T05:55:17.660Z,5.68
2018-01-21T05:57:46.407Z,5.47
2018-01-21T06:00:14.415Z,5.07
2018-01-21T06:02:43.916Z,5.00
2018-01-21T06:05:11.924Z,4.50
2018-01-21T06:07:39.919Z,3.47
2018-01-21T06:10:08.695Z,4.28
2018-01-21T06:12:36.684Z,4.20
2018-01-21T06:15:04.685Z,5.40
2018-01-21T06:17:33.447Z,4.37
2018-01-21T06:20:01.432Z,3.62
2018-01-21T06:22:29.435Z,3.47
2018-01-21T06:24:57.441Z,4.93
2018-01-21T06:27:26.193Z,5.05
2018-01-21T06:29:54.196Z,7.10
2018-01-21T06:32:22.218Z,3.65
2018-01-21T06:34:50.199Z,2.90
2018-01-21T06:37:18.224Z,3.78
2018-01-21T06:39:46.216Z,3.90
2018-01-21T06:42:14.206Z,3.25
2018-01-21T06:44:42.203Z,2.50
2018-01-21T06:47:10.196Z,4.10
2018-01-21T06:49:38.956Z,5.45
2018-01-21T06:52:06.952Z,4.10
2018-01-21T06:54:36.456Z,4.95
2018-01-21T06:57:04.445Z,4.35
2018-01-21T06:59:32.439Z,3.22
2018-01-21T07:02:00.440Z,2.75
2018-01-21T07:04:29.191Z,3.80
2018-01-21T07:06:57.200Z,4.75
2018-01-21T07:09:25.188Z,3.45
2018-01-21T07:11:53.168Z,2.83
2018-01-21T07:14:21.168Z,3.15
2018-01-21T07:16:49.940Z,4.25
2018-01-21T07:19:17.923Z,3.45
2018-01-21T07:21:45.923Z,3.83
2018-01-21T07:24:13.927Z,3.72
2018-01-21T07:26:42.688Z,3.35
2018-01-21T07:29:10.688Z,2.20
2018-01-21T07:31:40.194Z,3.20
2018-01-21T07:34:08.180Z,4.87
2018-01-21T07:36:36.178Z,2.60
2018-01-21T07:39:04.952Z,2.55
2018-01-21T07:41:32.940Z,2.47
2018-01-21T07:44:00.940Z,3.97
2018-01-21T07:46:29.724Z,3.35
2018-01-21T07:48:57.698Z,3.33
2018-01-21T07:51:25.706Z,3.92
2018-01-21T07:53:53.708Z,2.33
2018-01-21T07:56:22.464Z,2.78
2018-01-21T07:58:50.456Z,3.40
2018-01-21T08:01:18.471Z,2.83
2018-01-21T08:03:46.464Z,2.47
2018-01-21T08:06:14.451Z,3.70
2018-01-21T08:08:42.455Z,2.33
2018-01-21T08:11:10.440Z,2.60
2018-01-21T08:13:38.444Z,2.75
2018-01-21T08:16:06.440Z,1.60
2018-01-21T08:18:34.443Z,1.98
2018-01-21T08:21:02.435Z,2.20
2018-01-21T08:23:30.431Z,2.30
2018-01-21T08:25:58.437Z,1.83
2018-01-21T08:28:26.436Z,4.10
2018-01-21T08:30:54.439Z,2.85
2018-01-21T08:33:22.423Z,2.30
2018-01-21T08:35:56.890Z,2.92
2018-01-21T08:38:30.508Z,1.65
2018-01-21T08:41:05.181Z,1.42
2018-01-21T08:43:33.180Z,1.37
2018-01-21T08:46:01.163Z,2.20
2018-01-21T08:48:29.169Z,2.28
2018-01-21T08:50:58.013Z,1.40
2018-01-21T08:53:25.983Z,2.37
2018-01-21T08:55:54.056Z,1.50
2018-01-21T08:58:22.060Z,2.30
2018-01-21T09:00:50.044Z,3.08
2018-01-21T09:03:18.178Z,2.20
2018-01-21T09:05:46.172Z,1.73
2018-01-21T09:08:14.928Z,1.98
2018-01-21T09:10:42.923Z,2.30
2018-01-21T09:13:10.924Z,2.67
2018-01-21T09:15:39.685Z,1.67
2018-01-21T09:18:07.680Z,2.00
2018-01-21T09:20:35.690Z,2.15
2018-01-21T09:23:03.667Z,1.30
2018-01-21T09:25:31.667Z,1.42
2018-01-21T09:28:00.444Z,1.60
2018-01-21T09:30:28.423Z,1.50
2018-01-21T09:32:56.424Z,1.10
2018-01-21T09:35:24.424Z,1.83
2018-01-21T09:37:53.220Z,1.15
2018-01-21T09:40:21.176Z,1.92
2018-01-21T09:42:49.271Z,1.08
2018-01-21T09:45:17.261Z,1.52
2018-01-21T09:47:46.020Z,1.80
2018-01-21T09:50:14.015Z,1.00
2018-01-21T09:52:42.012Z,1.67
2018-01-21T09:55:10.011Z,2.80
2018-01-21T09:57:38.779Z,1.60
2018-01-21T10:00:06.763Z,0.90
2018-01-21T10:02:34.761Z,1.45
2018-01-21T10:05:02.763Z,1.85
2018-01-21T10:07:31.511Z,2.10
2018-01-21T10:09:59.507Z,1.52
2018-01-21T10:12:27.528Z,1.30
2018-01-21T10:14:56.263Z,1.42
2018-01-21T10:17:24.263Z,2.08
2018-01-21T10:19:52.740Z,0.95
2018-01-21T10:22:21.782Z,0.80
2018-01-21T10:24:50.035Z,0.77
2018-01-21T10:27:18.830Z,1.77
2018-01-21T10:29:47.029Z,1.17
2018-01-21T10:32:15.017Z,1.77
2018-01-21T10:34:43.013Z,1.30
2018-01-21T10:37:11.220Z,1.80
2018-01-21T10:39:39.220Z,0.82
2018-01-21T10:42:07.983Z,0.95
2018-01-21T10:44:35.976Z,1.45
2018-01-21T10:47:03.980Z,2.12
2018-01-21T10:49:32.763Z,1.45
2018-01-21T10:52:00.782Z,1.52
2018-01-21T10:54:29.547Z,2.05
2018-01-21T10:56:57.561Z,1.85
2018-01-21T10:59:26.320Z,1.70
2018-01-21T11:01:54.320Z,1.90
2018-01-21T11:04:22.319Z,1.60
2018-01-21T11:06:51.073Z,2.20
2018-01-21T11:09:19.067Z,1.95
2018-01-21T11:11:47.068Z,1.83
2018-01-21T11:14:15.052Z,2.00
2018-01-21T11:16:43.062Z,2.12
2018-01-21T11:19:11.825Z,1.58
2018-01-21T11:21:39.824Z,1.95
2018-01-21T11:24:07.840Z,2.03
2018-01-21T11:26:35.828Z,2.53
2018-01-21T11:29:03.817Z,1.85
2018-01-21T11:31:31.819Z,1.33
2018-01-21T11:33:59.832Z,2.97
2018-01-21T11:36:27.829Z,1.55
2018-01-21T11:38:55.815Z,2.47
2018-01-21T11:41:24.592Z,1.75
2018-01-21T11:43:52.572Z,1.20
2018-01-21T11:46:20.576Z,2.08
2018-01-21T11:48:49.350Z,2.03
2018-01-21T11:51:17.336Z,2.83
2018-01-21T11:53:45.343Z,1.70
2018-01-21T11:56:14.104Z,1.65
2018-01-21T11:58:42.084Z,2.00
2018-01-21T12:01:10.093Z,1.50
2018-01-21T12:03:38.092Z,2.87
2018-01-21T12:06:06.851Z,0.82
2018-01-21T12:08:34.859Z,1.20
2018-01-21T12:11:02.884Z,0.93
2018-01-21T12:13:30.887Z,1.92
2018-01-21T12:15:58.872Z,1.58
2018-01-21T12:18:26.891Z,1.67
2018-01-21T12:20:54.871Z,1.60
2018-01-21T12:23:23.647Z,1.85
2018-01-21T12:25:51.648Z,1.85
2018-01-21T12:28:19.632Z,4.10
2018-01-21T12:30:47.623Z,2.05
2018-01-21T12:33:16.388Z,1.80
2018-01-21T12:35:44.372Z,2.15
2018-01-21T12:38:12.370Z,2.37
2018-01-21T12:40:40.372Z,1.35
2018-01-21T12:43:08.398Z,1.45
2018-01-21T12:45:36.404Z,1.33
2018-01-21T12:48:04.404Z,0.90
2018-01-21T12:50:32.388Z,0.80
2018-01-21T12:53:00.395Z,1.05
2018-01-21T12:55:29.159Z,1.00
2018-01-21T12:57:57.163Z,1.70
2018-01-21T13:00:25.165Z,1.55
2018-01-21T13:02:53.936Z,1.73
2018-01-21T13:05:21.927Z,1.67
2018-01-21T13:07:49.919Z,1.62
2018-01-21T13:10:18.688Z,1.40
2018-01-21T13:12:46.667Z,1.48
2018-01-21T13:15:14.674Z,1.30
2018-01-21T13:17:42.672Z,1.70
2018-01-21T13:20:11.429Z,3.92
2018-01-21T13:22:39.428Z,1.20
2018-01-21T13:25:07.432Z,1.30
2018-01-21T13:27:35.435Z,1.50
2018-01-21T13:30:04.189Z,1.73
2018-01-21T13:32:32.192Z,1.30
2018-01-21T13:35:01.680Z,1.20
2018-01-21T13:37:29.676Z,1.27
2018-01-21T13:39:57.692Z,1.85
2018-01-21T13:42:26.442Z,1.40
2018-01-21T13:44:54.456Z,1.17
2018-01-21T13:47:22.436Z,1.02
2018-01-21T13:49:50.431Z,1.40
2018-01-21T13:52:19.196Z,1.48
2018-01-21T13:54:47.218Z,1.35
2018-01-21T13:57:16.003Z,2.28
2018-01-21T13:59:44.007Z,3.05
2018-01-21T14:02:12.776Z,2.55
2018-01-21T14:04:40.756Z,2.17
2018-01-21T14:07:08.756Z,1.25
2018-01-21T14:09:36.777Z,1.40
2018-01-21T14:12:04.787Z,1.55
2018-01-21T14:14:32.791Z,2.17
2018-01-21T14:17:00.811Z,2.17
2018-01-21T14:19:28.780Z,2.65
2018-01-21T14:21:57.571Z,4.62
2018-01-21T14:24:25.563Z,2.72
2018-01-21T14:26:54.320Z,1.70
2018-01-21T14:29:22.315Z,1.50
2018-01-21T14:31:50.323Z,2.83
2018-01-21T14:34:19.071Z,2.90
2018-01-21T14:36:47.087Z,2.28
2018-01-21T14:39:15.084Z,2.30
2018-01-21T14:41:43.059Z,2.10
2018-01-21T14:44:11.065Z,3.60
2018-01-21T14:46:39.828Z,2.30
2018-01-21T14:49:07.808Z,2.67
2018-01-21T14:51:35.808Z,4.75
2018-01-21T14:54:03.828Z,1.90
2018-01-21T14:56:32.571Z,2.47
2018-01-21T14:59:00.575Z,2.30
2018-01-21T15:01:29.363Z,2.22
2018-01-21T15:03:57.344Z,1.62
2018-01-21T15:06:25.446Z,4.70
2018-01-21T15:08:53.439Z,2.55
2018-01-21T15:11:22.188Z,2.40
2018-01-21T15:13:50.200Z,3.03
2018-01-21T15:16:18.204Z,2.05
2018-01-21T15:18:46.951Z,2.78
2018-01-21T15:21:14.960Z,2.58
2018-01-21T15:23:42.951Z,2.22
2018-01-21T15:26:10.948Z,2.20
2018-01-21T15:28:39.731Z,2.87
2018-01-21T15:31:07.752Z,2.55
2018-01-21T15:33:36.517Z,1.95
2018-01-21T15:36:04.524Z,1.92
2018-01-21T15:38:33.299Z,3.47
2018-01-21T15:41:01.293Z,4.07
2018-01-21T15:43:29.296Z,3.45
2018-01-21T15:45:58.080Z,2.60
2018-01-21T15:48:26.836Z,2.80
2018-01-21T15:50:54.840Z,3.10
2018-01-21T15:53:22.852Z,3.37
2018-01-21T15:55:51.605Z,2.70
2018-01-21T15:58:19.599Z,3.10
2018-01-21T16:00:47.716Z,2.58
2018-01-21T16:03:15.860Z,3.40
2018-01-21T16:05:43.991Z,3.35
2018-01-21T16:08:12.130Z,4.32
2018-01-21T16:10:40.161Z,4.60
2018-01-21T16:13:08.936Z,3.12
2018-01-21T16:15:36.971Z,3.30
2018-01-21T16:18:05.090Z,3.08
2018-01-21T16:20:33.243Z,3.00
2018-01-21T16:23:01.475Z,3.65
2018-01-21T16:25:30.138Z,2.33
2018-01-21T16:27:58.371Z,3.00
2018-01-21T16:30:26.541Z,5.95
2018-01-21T16:32:54.527Z,6.32
2018-01-21T16:35:22.616Z,3.08
2018-01-21T16:38:02.474Z,2.70
2018-01-21T16:40:31.160Z,3.03
2018-01-21T16:42:59.205Z,3.62
2018-01-21T16:45:27.990Z,1.73
2018-01-21T16:47:55.988Z,2.90
2018-01-21T16:50:24.755Z,1.87
2018-01-21T16:52:52.745Z,3.47
2018-01-21T16:55:22.256Z,1.85
2018-01-21T16:57:50.296Z,5.37
2018-01-21T17:00:18.288Z,2.30
2018-01-21T17:02:46.281Z,2.15
2018-01-21T17:05:14.296Z,2.10
2018-01-21T17:07:42.379Z,2.22
2018-01-21T17:10:10.416Z,4.03
2018-01-21T17:12:38.420Z,2.80
2018-01-21T17:15:06.412Z,2.65
2018-01-21T17:17:34.424Z,3.85
2018-01-21T17:20:03.216Z,4.22
2018-01-21T17:22:31.967Z,5.95
2018-01-21T17:24:59.977Z,7.82
2018-01-21T17:27:28.000Z,5.05
2018-01-21T17:29:56.796Z,3.42
2018-01-21T17:32:24.764Z,6.03
2018-01-21T17:34:52.792Z,4.03
2018-01-21T17:37:20.778Z,6.78
2018-01-21T17:39:48.788Z,4.95
2018-01-21T17:42:16.811Z,7.93
2018-01-21T17:44:45.607Z,4.47
2018-01-21T17:47:13.559Z,7.00
2018-01-21T17:49:41.568Z,4.35
2018-01-21T17:52:09.548Z,5.30
2018-01-21T17:54:38.316Z,6.40
2018-01-21T17:57:06.326Z,8.82
2018-01-21T17:59:34.304Z,5.45
2018-01-21T18:02:02.320Z,6.60
2018-01-21T18:04:30.324Z,9.48
2018-01-21T18:06:58.328Z,10.40
2018-01-21T18:09:26.327Z,7.43
2018-01-21T18:11:54.510Z,15.25
2018-01-21T18:14:22.487Z,6.12
2018-01-21T18:16:50.512Z,5.87
2018-01-21T18:19:19.284Z,10.00
2018-01-21T18:21:47.273Z,8.82
2018-01-21T18:24:15.320Z,8.15
2018-01-21T18:26:44.436Z,6.43
2018-01-21T18:29:12.415Z,7.10
2018-01-21T18:31:40.419Z,7.10
2018-01-21T18:34:08.428Z,8.45
2018-01-21T18:36:37.183Z,5.65
2018-01-21T18:39:05.197Z,3.50
2018-01-21T18:41:33.365Z,5.20
2018-01-21T18:44:01.331Z,4.55
2018-01-21T18:46:29.343Z,4.60
2018-01-21T18:48:57.367Z,8.35
2018-01-21T18:51:25.347Z,7.93
2018-01-21T18:53:53.355Z,5.85
2018-01-21T18:56:21.368Z,4.85
2018-01-21T18:58:49.364Z,5.07
2018-01-21T19:01:17.415Z,6.15
2018-01-21T19:03:45.421Z,6.30
2018-01-21T19:06:13.432Z,5.75
2018-01-21T19:08:41.456Z,8.60
2018-01-21T19:11:10.188Z,6.82
2018-01-21T19:13:39.700Z,5.87
2018-01-21T19:16:07.684Z,8.20
2018-01-21T19:18:35.688Z,10.77
2018-01-21T19:21:04.440Z,7.25
2018-01-21T19:23:32.464Z,7.07
2018-01-21T19:26:01.231Z,9.13
2018-01-21T19:28:29.215Z,7.28
2018-01-21T19:30:57.232Z,7.95
2018-01-21T19:33:25.231Z,6.37
2018-01-21T19:35:53.228Z,6.47
2018-01-21T19:38:26.073Z,7.72
2018-01-21T19:40:55.579Z,7.90
2018-01-21T19:43:38.465Z,6.10
2018-01-21T19:46:06.473Z,6.87
2018-01-21T19:48:34.458Z,8.25
2018-01-21T19:51:02.468Z,7.72
2018-01-21T19:53:30.468Z,8.85
2018-01-21T19:55:58.459Z,8.50
2018-01-21T19:58:27.235Z,12.50
2018-01-21T20:00:55.229Z,6.05
2018-01-21T20:03:23.211Z,8.32
2018-01-21T20:05:51.227Z,7.12
2018-01-21T20:08:19.984Z,14.43
2018-01-21T20:10:47.980Z,8.05
2018-01-21T20:13:15.979Z,6.03
2018-01-21T20:15:44.758Z,8.00
2018-01-21T20:18:12.737Z,5.78
2018-01-21T20:20:40.777Z,13.73
2018-01-21T20:23:09.516Z,9.43
2018-01-21T20:25:37.500Z,8.27
2018-01-21T20:28:05.507Z,8.25
2018-01-21T20:30:34.272Z,8.95
2018-01-21T20:33:02.280Z,9.77
2018-01-21T20:35:30.296Z,9.65
2018-01-21T20:37:58.315Z,9.45
2018-01-21T20:40:26.300Z,9.68
2018-01-21T20:42:54.307Z,8.50
2018-01-21T20:45:22.427Z,7.75
2018-01-21T20:47:51.164Z,13.00
2018-01-21T20:50:19.183Z,8.73
2018-01-21T20:52:47.171Z,8.95
2018-01-21T20:55:15.928Z,8.85
2018-01-21T20:57:43.927Z,14.93
2018-01-21T21:00:11.928Z,10.52
2018-01-21T21:02:41.702Z,13.68
2018-01-21T21:05:09.747Z,11.77
2018-01-21T21:07:38.599Z,9.52
2018-01-21T21:10:06.575Z,7.22
2018-01-21T21:12:34.579Z,6.78
2018-01-21T21:15:02.659Z,11.75
2018-01-21T21:17:31.034Z,11.75
2018-01-21T21:20:00.395Z,7.12
2018-01-21T21:22:28.511Z,11.88
2018-01-21T21:24:56.543Z,9.90
2018-01-21T21:27:24.593Z,8.38
2018-01-21T21:29:52.575Z,10.75
2018-01-21T21:32:20.663Z,13.18
2018-01-21T21:34:48.941Z,13.27
2018-01-21T21:37:17.089Z,14.23
2018-01-21T21:39:45.933Z,9.40
2018-01-21T21:42:14.211Z,10.20
2018-01-21T21:44:42.252Z,14.40
2018-01-21T21:47:10.461Z,11.93
2018-01-21T21:49:39.496Z,13.00
2018-01-21T21:52:07.514Z,10.43
2018-01-21T21:54:35.810Z,11.98
2018-01-21T21:57:04.260Z,11.65
2018-01-21T21:59:32.412Z,15.23
2018-01-21T22:02:00.587Z,15.38
2018-01-21T22:04:29.312Z,13.13
2018-01-21T22:06:57.393Z,12.65
2018-01-21T22:09:25.971Z,13.00
2018-01-21T22:11:54.756Z,13.25
2018-01-21T22:14:22.759Z,11.45
2018-01-21T22:16:50.748Z,14.00
2018-01-21T22:19:19.520Z,11.68
2018-01-21T22:21:47.824Z,9.02
2018-01-21T22:24:16.123Z,15.68
2018-01-21T22:26:45.469Z,14.60
2018-01-21T22:29:13.468Z,15.20
2018-01-21T22:31:41.464Z,9.93
2018-01-21T22:34:09.479Z,13.25
2018-01-21T22:36:37.472Z,17.48
2018-01-21T22:39:06.236Z,15.15
2018-01-21T22:41:34.775Z,17.27
2018-01-21T22:44:02.808Z,13.32
2018-01-21T22:46:30.802Z,14.93
2018-01-21T22:49:00.349Z,18.27
2018-01-21T22:51:28.587Z,19.92
2018-01-21T22:53:56.668Z,15.38
2018-01-21T22:56:24.651Z,8.52
2018-01-21T22:58:53.022Z,8.10
2018-01-21T23:01:21.051Z,10.75
2018-01-21T23:03:49.008Z,11.48
2018-01-21T23:06:17.440Z,11.45
2018-01-21T23:08:45.631Z,13.95
2018-01-21T23:11:13.838Z,14.95
2018-01-21T23:13:41.824Z,13.02
2018-01-21T23:16:10.582Z,12.13
2018-01-21T23:18:38.600Z,12.48
2018-01-21T23:21:06.604Z,12.15
2018-01-21T23:23:34.591Z,11.57
2018-01-21T23:26:03.378Z,15.35
2018-01-21T23:28:31.389Z,13.75
2018-01-21T23:30:59.388Z,14.57
2018-01-21T23:33:27.407Z,12.15
2018-01-21T23:35:56.176Z,12.90
2018-01-21T23:38:24.168Z,16.60
2018-01-21T23:40:52.167Z,11.98
2018-01-21T23:43:20.946Z,11.02
2018-01-21T23:45:48.928Z,17.85
2018-01-21T23:48:16.944Z,12.77
2018-01-21T23:50:45.712Z,12.90
2018-01-21T23:53:13.700Z,15.20
2018-01-21T23:55:41.710Z,14.70
2018-01-21T23:58:10.584Z,11.18
